sensor_id;sensor_type;location;lat;lon;timestamp;P1;durP1;ratioP1;P2;durP2;ratioP2
59876;SDS011;45749;51.140;17.184;2023-01-06T00:00:45;4.33;;;1.55;;
59876;SDS011;45749;51.140;17.184;2023-01-06T00:03:11;4.08;;;1.50;;
59876;SDS011;45749;51.140;17.184;2023-01-06T00:05:37;7.22;;;1.35;;
59876;SDS011;45749;51.140;17.184;2023-01-06T00:08:05;3.70;;;1.52;;
59876;SDS011;45749;51.140;17.184;2023-01-06T00:10:31;3.00;;;1.35;;
59876;SDS011;45749;51.140;17.184;2023-01-06T00:12:57;6.95;;;1.90;;
59876;SDS011;45749;51.140;17.184;2023-01-06T00:15:23;3.10;;;1.37;;
59876;SDS011;45749;51.140;17.184;2023-01-06T00:17:50;3.77;;;1.20;;
59876;SDS011;45749;51.140;17.184;2023-01-06T00:20:16;1.70;;;1.10;;
59876;SDS011;45749;51.140;17.184;2023-01-06T00:22:42;2.50;;;1.22;;
59876;SDS011;45749;51.140;17.184;2023-01-06T00:25:08;7.53;;;1.37;;
59876;SDS011;45749;51.140;17.184;2023-01-06T00:27:35;3.12;;;1.15;;
59876;SDS011;45749;51.140;17.184;2023-01-06T00:30:03;2.12;;;1.22;;
59876;SDS011;45749;51.140;17.184;2023-01-06T00:32:30;4.70;;;1.20;;
59876;SDS011;45749;51.140;17.184;2023-01-06T00:34:57;6.62;;;1.20;;
59876;SDS011;45749;51.140;17.184;2023-01-06T00:37:23;2.25;;;1.15;;
59876;SDS011;45749;51.140;17.184;2023-01-06T00:39:48;2.92;;;1.10;;
59876;SDS011;45749;51.140;17.184;2023-01-06T00:42:14;2.17;;;1.10;;
59876;SDS011;45749;51.140;17.184;2023-01-06T00:44:40;3.12;;;0.90;;
59876;SDS011;45749;51.140;17.184;2023-01-06T00:47:07;4.83;;;1.27;;
59876;SDS011;45749;51.140;17.184;2023-01-06T00:49:35;3.27;;;1.45;;
59876;SDS011;45749;51.140;17.184;2023-01-06T00:52:02;3.75;;;1.20;;
59876;SDS011;45749;51.140;17.184;2023-01-06T00:54:29;2.47;;;1.15;;
59876;SDS011;45749;51.140;17.184;2023-01-06T00:56:55;2.77;;;1.00;;
59876;SDS011;45749;51.140;17.184;2023-01-06T00:59:22;2.10;;;1.00;;
59876;SDS011;45749;51.140;17.184;2023-01-06T01:01:51;3.98;;;1.12;;
59876;SDS011;45749;51.140;17.184;2023-01-06T01:04:19;3.05;;;1.17;;
59876;SDS011;45749;51.140;17.184;2023-01-06T01:06:46;2.33;;;0.88;;
59876;SDS011;45749;51.140;17.184;2023-01-06T01:09:15;2.27;;;1.00;;
59876;SDS011;45749;51.140;17.184;2023-01-06T01:11:46;3.92;;;1.37;;
59876;SDS011;45749;51.140;17.184;2023-01-06T01:14:31;3.62;;;1.10;;
59876;SDS011;45749;51.140;17.184;2023-01-06T01:16:58;3.80;;;0.93;;
59876;SDS011;45749;51.140;17.184;2023-01-06T01:19:25;1.95;;;1.10;;
59876;SDS011;45749;51.140;17.184;2023-01-06T01:21:51;5.42;;;1.05;;
59876;SDS011;45749;51.140;17.184;2023-01-06T01:24:17;2.00;;;1.07;;
59876;SDS011;45749;51.140;17.184;2023-01-06T01:26:44;2.70;;;1.47;;
59876;SDS011;45749;51.140;17.184;2023-01-06T01:29:11;5.40;;;2.67;;
59876;SDS011;45749;51.140;17.184;2023-01-06T01:31:40;3.35;;;1.35;;
59876;SDS011;45749;51.140;17.184;2023-01-06T01:34:08;2.17;;;0.95;;
59876;SDS011;45749;51.140;17.184;2023-01-06T01:36:36;3.52;;;1.45;;
59876;SDS011;45749;51.140;17.184;2023-01-06T01:39:03;4.10;;;1.15;;
59876;SDS011;45749;51.140;17.184;2023-01-06T01:41:29;2.52;;;1.02;;
59876;SDS011;45749;51.140;17.184;2023-01-06T01:43:58;3.65;;;1.47;;
59876;SDS011;45749;51.140;17.184;2023-01-06T01:46:31;3.92;;;1.47;;
59876;SDS011;45749;51.140;17.184;2023-01-06T01:49:02;3.55;;;1.12;;
59876;SDS011;45749;51.140;17.184;2023-01-06T01:51:34;3.17;;;1.37;;
59876;SDS011;45749;51.140;17.184;2023-01-06T01:54:05;3.58;;;1.65;;
59876;SDS011;45749;51.140;17.184;2023-01-06T01:56:34;4.97;;;2.00;;
59876;SDS011;45749;51.140;17.184;2023-01-06T01:59:07;4.35;;;1.92;;
59876;SDS011;45749;51.140;17.184;2023-01-06T02:01:40;4.87;;;1.85;;
59876;SDS011;45749;51.140;17.184;2023-01-06T02:04:06;4.12;;;1.42;;
59876;SDS011;45749;51.140;17.184;2023-01-06T02:06:33;5.10;;;2.50;;
59876;SDS011;45749;51.140;17.184;2023-01-06T02:09:07;4.10;;;1.55;;
59876;SDS011;45749;51.140;17.184;2023-01-06T02:11:50;3.60;;;1.30;;
59876;SDS011;45749;51.140;17.184;2023-01-06T02:14:18;3.12;;;1.45;;
59876;SDS011;45749;51.140;17.184;2023-01-06T02:29:09;4.45;;;1.85;;
59876;SDS011;45749;51.140;17.184;2023-01-06T02:31:59;2.58;;;1.00;;
59876;SDS011;45749;51.140;17.184;2023-01-06T02:46:52;2.30;;;1.40;;
59876;SDS011;45749;51.140;17.184;2023-01-06T02:52:20;2.95;;;1.25;;
59876;SDS011;45749;51.140;17.184;2023-01-06T02:55:15;2.42;;;1.45;;
59876;SDS011;45749;51.140;17.184;2023-01-06T02:57:58;3.75;;;1.50;;
59876;SDS011;45749;51.140;17.184;2023-01-06T03:00:49;1.77;;;1.25;;
59876;SDS011;45749;51.140;17.184;2023-01-06T03:03:23;2.60;;;1.30;;
59876;SDS011;45749;51.140;17.184;2023-01-06T03:05:55;3.65;;;1.47;;
59876;SDS011;45749;51.140;17.184;2023-01-06T03:08:32;9.38;;;2.17;;
59876;SDS011;45749;51.140;17.184;2023-01-06T03:10:59;3.33;;;1.47;;
59876;SDS011;45749;51.140;17.184;2023-01-06T03:13:46;3.20;;;1.45;;
59876;SDS011;45749;51.140;17.184;2023-01-06T03:16:13;4.05;;;1.22;;
59876;SDS011;45749;51.140;17.184;2023-01-06T03:18:41;4.40;;;1.80;;
59876;SDS011;45749;51.140;17.184;2023-01-06T03:21:13;3.80;;;1.30;;
59876;SDS011;45749;51.140;17.184;2023-01-06T03:23:43;4.42;;;1.70;;
59876;SDS011;45749;51.140;17.184;2023-01-06T03:26:10;4.00;;;1.40;;
59876;SDS011;45749;51.140;17.184;2023-01-06T03:28:37;2.67;;;1.90;;
59876;SDS011;45749;51.140;17.184;2023-01-06T03:37:30;2.42;;;1.40;;
59876;SDS011;45749;51.140;17.184;2023-01-06T03:42:59;3.15;;;1.72;;
59876;SDS011;45749;51.140;17.184;2023-01-06T03:45:46;3.10;;;1.30;;
59876;SDS011;45749;51.140;17.184;2023-01-06T03:51:13;6.22;;;1.82;;
59876;SDS011;45749;51.140;17.184;2023-01-06T03:54:00;4.72;;;1.60;;
59876;SDS011;45749;51.140;17.184;2023-01-06T03:56:48;4.20;;;1.20;;
59876;SDS011;45749;51.140;17.184;2023-01-06T03:59:18;4.62;;;2.10;;
59876;SDS011;45749;51.140;17.184;2023-01-06T04:01:47;3.60;;;1.27;;
59876;SDS011;45749;51.140;17.184;2023-01-06T04:04:15;2.65;;;1.30;;
59876;SDS011;45749;51.140;17.184;2023-01-06T04:06:42;3.55;;;1.62;;
59876;SDS011;45749;51.140;17.184;2023-01-06T04:09:08;4.30;;;1.55;;
59876;SDS011;45749;51.140;17.184;2023-01-06T04:11:34;3.25;;;1.62;;
59876;SDS011;45749;51.140;17.184;2023-01-06T04:14:19;2.30;;;1.55;;
59876;SDS011;45749;51.140;17.184;2023-01-06T04:16:45;3.55;;;1.52;;
59876;SDS011;45749;51.140;17.184;2023-01-06T04:19:11;2.50;;;1.35;;
59876;SDS011;45749;51.140;17.184;2023-01-06T04:21:37;2.22;;;1.55;;
59876;SDS011;45749;51.140;17.184;2023-01-06T04:24:03;1.82;;;1.52;;
59876;SDS011;45749;51.140;17.184;2023-01-06T04:26:29;3.33;;;1.70;;
59876;SDS011;45749;51.140;17.184;2023-01-06T04:28:55;4.58;;;1.70;;
59876;SDS011;45749;51.140;17.184;2023-01-06T04:31:21;3.65;;;2.00;;
59876;SDS011;45749;51.140;17.184;2023-01-06T04:33:47;4.42;;;1.52;;
59876;SDS011;45749;51.140;17.184;2023-01-06T04:36:13;3.17;;;2.17;;
59876;SDS011;45749;51.140;17.184;2023-01-06T04:38:40;5.08;;;2.50;;
59876;SDS011;45749;51.140;17.184;2023-01-06T04:41:06;31.15;;;14.70;;
59876;SDS011;45749;51.140;17.184;2023-01-06T04:43:32;25.97;;;12.78;;
59876;SDS011;45749;51.140;17.184;2023-01-06T04:45:58;15.03;;;8.18;;
59876;SDS011;45749;51.140;17.184;2023-01-06T04:48:24;15.25;;;10.58;;
59876;SDS011;45749;51.140;17.184;2023-01-06T04:50:58;8.40;;;6.67;;
59876;SDS011;45749;51.140;17.184;2023-01-06T04:53:29;9.53;;;8.45;;
59876;SDS011;45749;51.140;17.184;2023-01-06T04:58:30;8.60;;;5.47;;
59876;SDS011;45749;51.140;17.184;2023-01-06T05:00:58;6.67;;;4.00;;
59876;SDS011;45749;51.140;17.184;2023-01-06T05:03:27;4.67;;;2.77;;
59876;SDS011;45749;51.140;17.184;2023-01-06T05:05:53;5.35;;;2.47;;
59876;SDS011;45749;51.140;17.184;2023-01-06T05:08:19;7.55;;;3.12;;
59876;SDS011;45749;51.140;17.184;2023-01-06T05:10:45;6.05;;;2.72;;
59876;SDS011;45749;51.140;17.184;2023-01-06T05:13:11;5.55;;;3.52;;
59876;SDS011;45749;51.140;17.184;2023-01-06T05:15:37;6.87;;;3.33;;
59876;SDS011;45749;51.140;17.184;2023-01-06T05:18:03;4.70;;;2.70;;
59876;SDS011;45749;51.140;17.184;2023-01-06T05:20:30;5.97;;;2.60;;
59876;SDS011;45749;51.140;17.184;2023-01-06T05:22:55;4.87;;;3.05;;
59876;SDS011;45749;51.140;17.184;2023-01-06T05:25:21;4.15;;;2.52;;
59876;SDS011;45749;51.140;17.184;2023-01-06T05:27:47;5.58;;;2.72;;
59876;SDS011;45749;51.140;17.184;2023-01-06T05:30:15;5.20;;;2.47;;
59876;SDS011;45749;51.140;17.184;2023-01-06T05:32:41;3.95;;;2.52;;
59876;SDS011;45749;51.140;17.184;2023-01-06T05:35:07;3.25;;;2.12;;
59876;SDS011;45749;51.140;17.184;2023-01-06T05:37:33;4.22;;;2.10;;
59876;SDS011;45749;51.140;17.184;2023-01-06T05:40:00;4.08;;;2.10;;
59876;SDS011;45749;51.140;17.184;2023-01-06T05:42:26;2.98;;;2.00;;
59876;SDS011;45749;51.140;17.184;2023-01-06T05:44:51;3.27;;;2.10;;
59876;SDS011;45749;51.140;17.184;2023-01-06T05:47:17;2.77;;;2.05;;
59876;SDS011;45749;51.140;17.184;2023-01-06T05:49:44;3.20;;;1.87;;
59876;SDS011;45749;51.140;17.184;2023-01-06T05:52:10;4.30;;;2.50;;
59876;SDS011;45749;51.140;17.184;2023-01-06T05:54:36;3.58;;;2.50;;
59876;SDS011;45749;51.140;17.184;2023-01-06T05:57:02;4.17;;;2.52;;
59876;SDS011;45749;51.140;17.184;2023-01-06T05:59:28;4.33;;;3.00;;
59876;SDS011;45749;51.140;17.184;2023-01-06T06:01:54;4.75;;;2.87;;
59876;SDS011;45749;51.140;17.184;2023-01-06T06:04:19;4.40;;;2.67;;
59876;SDS011;45749;51.140;17.184;2023-01-06T06:06:45;4.12;;;2.52;;
59876;SDS011;45749;51.140;17.184;2023-01-06T06:09:11;3.80;;;2.72;;
59876;SDS011;45749;51.140;17.184;2023-01-06T06:11:37;3.80;;;2.52;;
59876;SDS011;45749;51.140;17.184;2023-01-06T06:14:03;3.02;;;2.70;;
59876;SDS011;45749;51.140;17.184;2023-01-06T06:16:29;4.05;;;2.70;;
59876;SDS011;45749;51.140;17.184;2023-01-06T06:18:55;5.10;;;3.52;;
59876;SDS011;45749;51.140;17.184;2023-01-06T06:21:24;4.85;;;3.15;;
59876;SDS011;45749;51.140;17.184;2023-01-06T06:23:52;6.85;;;4.12;;
59876;SDS011;45749;51.140;17.184;2023-01-06T06:26:20;6.25;;;5.53;;
59876;SDS011;45749;51.140;17.184;2023-01-06T06:28:47;5.70;;;5.08;;
59876;SDS011;45749;51.140;17.184;2023-01-06T06:31:14;6.83;;;5.30;;
59876;SDS011;45749;51.140;17.184;2023-01-06T06:33:44;3.60;;;3.30;;
59876;SDS011;45749;51.140;17.184;2023-01-06T06:36:11;3.90;;;3.15;;
59876;SDS011;45749;51.140;17.184;2023-01-06T06:38:40;5.00;;;3.50;;
59876;SDS011;45749;51.140;17.184;2023-01-06T06:41:09;48.63;;;24.40;;
59876;SDS011;45749;51.140;17.184;2023-01-06T06:43:35;52.75;;;25.92;;
59876;SDS011;45749;51.140;17.184;2023-01-06T06:46:03;30.62;;;13.83;;
59876;SDS011;45749;51.140;17.184;2023-01-06T06:48:30;21.25;;;10.10;;
59876;SDS011;45749;51.140;17.184;2023-01-06T06:51:01;18.50;;;8.80;;
59876;SDS011;45749;51.140;17.184;2023-01-06T06:53:31;9.95;;;4.45;;
59876;SDS011;45749;51.140;17.184;2023-01-06T06:55:58;5.20;;;3.50;;
59876;SDS011;45749;51.140;17.184;2023-01-06T06:58:24;7.95;;;4.05;;
59876;SDS011;45749;51.140;17.184;2023-01-06T07:00:50;5.00;;;3.90;;
59876;SDS011;45749;51.140;17.184;2023-01-06T07:03:17;8.35;;;5.15;;
59876;SDS011;45749;51.140;17.184;2023-01-06T07:05:44;6.67;;;4.75;;
59876;SDS011;45749;51.140;17.184;2023-01-06T07:08:14;7.15;;;3.50;;
59876;SDS011;45749;51.140;17.184;2023-01-06T07:10:41;5.85;;;3.47;;
59876;SDS011;45749;51.140;17.184;2023-01-06T07:13:07;8.58;;;4.75;;
59876;SDS011;45749;51.140;17.184;2023-01-06T07:15:33;9.08;;;4.78;;
59876;SDS011;45749;51.140;17.184;2023-01-06T07:18:03;6.15;;;5.08;;
59876;SDS011;45749;51.140;17.184;2023-01-06T07:20:31;7.90;;;4.67;;
59876;SDS011;45749;51.140;17.184;2023-01-06T07:22:59;9.05;;;4.45;;
59876;SDS011;45749;51.140;17.184;2023-01-06T07:25:24;6.90;;;3.70;;
59876;SDS011;45749;51.140;17.184;2023-01-06T07:27:54;7.20;;;3.62;;
59876;SDS011;45749;51.140;17.184;2023-01-06T07:30:23;5.15;;;3.22;;
59876;SDS011;45749;51.140;17.184;2023-01-06T07:32:50;6.58;;;3.80;;
59876;SDS011;45749;51.140;17.184;2023-01-06T07:35:17;5.12;;;3.05;;
59876;SDS011;45749;51.140;17.184;2023-01-06T07:37:44;8.88;;;5.92;;
59876;SDS011;45749;51.140;17.184;2023-01-06T07:40:10;16.20;;;12.47;;
59876;SDS011;45749;51.140;17.184;2023-01-06T07:42:36;12.13;;;8.78;;
59876;SDS011;45749;51.140;17.184;2023-01-06T07:45:03;9.30;;;6.45;;
59876;SDS011;45749;51.140;17.184;2023-01-06T07:47:31;9.38;;;4.80;;
59876;SDS011;45749;51.140;17.184;2023-01-06T07:49:58;7.12;;;4.75;;
59876;SDS011;45749;51.140;17.184;2023-01-06T07:52:23;17.50;;;9.98;;
59876;SDS011;45749;51.140;17.184;2023-01-06T07:54:49;12.70;;;7.70;;
59876;SDS011;45749;51.140;17.184;2023-01-06T07:57:15;9.13;;;5.87;;
59876;SDS011;45749;51.140;17.184;2023-01-06T07:59:41;10.75;;;7.25;;
59876;SDS011;45749;51.140;17.184;2023-01-06T08:02:09;9.40;;;6.37;;
59876;SDS011;45749;51.140;17.184;2023-01-06T08:04:36;10.90;;;6.78;;
59876;SDS011;45749;51.140;17.184;2023-01-06T08:07:01;6.55;;;3.52;;
59876;SDS011;45749;51.140;17.184;2023-01-06T08:09:28;7.08;;;4.22;;
59876;SDS011;45749;51.140;17.184;2023-01-06T08:11:54;5.78;;;4.03;;
59876;SDS011;45749;51.140;17.184;2023-01-06T08:14:19;7.72;;;4.05;;
59876;SDS011;45749;51.140;17.184;2023-01-06T08:16:45;7.10;;;4.08;;
59876;SDS011;45749;51.140;17.184;2023-01-06T08:19:11;11.38;;;6.15;;
59876;SDS011;45749;51.140;17.184;2023-01-06T08:21:37;14.28;;;7.20;;
59876;SDS011;45749;51.140;17.184;2023-01-06T08:24:03;9.48;;;5.10;;
59876;SDS011;45749;51.140;17.184;2023-01-06T08:26:32;8.95;;;4.87;;
59876;SDS011;45749;51.140;17.184;2023-01-06T08:28:58;9.58;;;4.92;;
59876;SDS011;45749;51.140;17.184;2023-01-06T08:31:24;8.88;;;4.50;;
59876;SDS011;45749;51.140;17.184;2023-01-06T08:33:50;9.20;;;5.28;;
59876;SDS011;45749;51.140;17.184;2023-01-06T08:36:18;6.78;;;4.50;;
59876;SDS011;45749;51.140;17.184;2023-01-06T08:38:47;8.20;;;6.12;;
59876;SDS011;45749;51.140;17.184;2023-01-06T08:41:13;7.47;;;5.28;;
59876;SDS011;45749;51.140;17.184;2023-01-06T08:43:41;7.90;;;4.90;;
59876;SDS011;45749;51.140;17.184;2023-01-06T08:46:16;12.23;;;7.45;;
59876;SDS011;45749;51.140;17.184;2023-01-06T08:48:45;18.17;;;11.97;;
59876;SDS011;45749;51.140;17.184;2023-01-06T08:51:14;19.48;;;10.18;;
59876;SDS011;45749;51.140;17.184;2023-01-06T08:53:42;21.77;;;13.78;;
59876;SDS011;45749;51.140;17.184;2023-01-06T08:56:16;35.43;;;19.62;;
59876;SDS011;45749;51.140;17.184;2023-01-06T09:01:24;16.12;;;8.88;;
59876;SDS011;45749;51.140;17.184;2023-01-06T09:03:53;12.20;;;7.20;;
59876;SDS011;45749;51.140;17.184;2023-01-06T09:06:21;20.68;;;12.45;;
59876;SDS011;45749;51.140;17.184;2023-01-06T09:08:47;27.50;;;14.25;;
59876;SDS011;45749;51.140;17.184;2023-01-06T09:11:14;13.88;;;7.97;;
59876;SDS011;45749;51.140;17.184;2023-01-06T09:13:42;19.90;;;11.97;;
59876;SDS011;45749;51.140;17.184;2023-01-06T09:16:08;15.05;;;7.92;;
59876;SDS011;45749;51.140;17.184;2023-01-06T09:18:35;12.88;;;8.25;;
59876;SDS011;45749;51.140;17.184;2023-01-06T09:21:02;12.25;;;7.92;;
59876;SDS011;45749;51.140;17.184;2023-01-06T09:23:29;10.28;;;4.85;;
59876;SDS011;45749;51.140;17.184;2023-01-06T09:25:56;8.65;;;4.65;;
59876;SDS011;45749;51.140;17.184;2023-01-06T09:28:23;8.58;;;6.35;;
59876;SDS011;45749;51.140;17.184;2023-01-06T09:30:50;6.62;;;4.72;;
59876;SDS011;45749;51.140;17.184;2023-01-06T09:33:16;10.48;;;6.15;;
59876;SDS011;45749;51.140;17.184;2023-01-06T09:35:43;12.28;;;6.95;;
59876;SDS011;45749;51.140;17.184;2023-01-06T09:38:10;8.08;;;5.45;;
59876;SDS011;45749;51.140;17.184;2023-01-06T09:40:52;9.23;;;5.92;;
59876;SDS011;45749;51.140;17.184;2023-01-06T09:46:01;9.23;;;5.25;;
59876;SDS011;45749;51.140;17.184;2023-01-06T09:48:38;11.20;;;7.42;;
59876;SDS011;45749;51.140;17.184;2023-01-06T09:51:04;15.55;;;10.18;;
59876;SDS011;45749;51.140;17.184;2023-01-06T09:53:33;12.00;;;9.38;;
59876;SDS011;45749;51.140;17.184;2023-01-06T09:56:08;9.73;;;6.35;;
59876;SDS011;45749;51.140;17.184;2023-01-06T09:58:47;8.63;;;5.72;;
59876;SDS011;45749;51.140;17.184;2023-01-06T10:01:35;12.40;;;6.70;;
59876;SDS011;45749;51.140;17.184;2023-01-06T10:04:15;10.00;;;6.53;;
59876;SDS011;45749;51.140;17.184;2023-01-06T10:06:40;10.00;;;6.92;;
59876;SDS011;45749;51.140;17.184;2023-01-06T10:09:33;9.38;;;5.95;;
59876;SDS011;45749;51.140;17.184;2023-01-06T10:12:27;9.93;;;6.72;;
59876;SDS011;45749;51.140;17.184;2023-01-06T10:15:39;12.05;;;6.50;;
59876;SDS011;45749;51.140;17.184;2023-01-06T10:26:50;20.55;;;9.60;;
59876;SDS011;45749;51.140;17.184;2023-01-06T10:29:36;10.25;;;6.62;;
59876;SDS011;45749;51.140;17.184;2023-01-06T10:32:03;13.30;;;6.72;;
59876;SDS011;45749;51.140;17.184;2023-01-06T10:34:33;10.32;;;6.17;;
59876;SDS011;45749;51.140;17.184;2023-01-06T10:39:44;8.28;;;5.50;;
59876;SDS011;45749;51.140;17.184;2023-01-06T10:45:30;11.00;;;7.03;;
59876;SDS011;45749;51.140;17.184;2023-01-06T10:48:06;12.37;;;7.80;;
59876;SDS011;45749;51.140;17.184;2023-01-06T10:50:36;12.07;;;8.25;;
59876;SDS011;45749;51.140;17.184;2023-01-06T10:53:03;8.58;;;5.50;;
59876;SDS011;45749;51.140;17.184;2023-01-06T10:55:33;11.97;;;7.47;;
59876;SDS011;45749;51.140;17.184;2023-01-06T10:58:18;24.67;;;10.63;;
59876;SDS011;45749;51.140;17.184;2023-01-06T11:01:00;14.80;;;10.18;;
59876;SDS011;45749;51.140;17.184;2023-01-06T11:03:40;13.08;;;7.22;;
59876;SDS011;45749;51.140;17.184;2023-01-06T11:06:07;17.42;;;11.38;;
59876;SDS011;45749;51.140;17.184;2023-01-06T11:08:41;13.68;;;8.40;;
59876;SDS011;45749;51.140;17.184;2023-01-06T11:11:11;16.17;;;9.38;;
59876;SDS011;45749;51.140;17.184;2023-01-06T11:13:40;9.68;;;5.83;;
59876;SDS011;45749;51.140;17.184;2023-01-06T11:16:18;8.75;;;4.60;;
59876;SDS011;45749;51.140;17.184;2023-01-06T11:18:57;9.05;;;4.78;;
59876;SDS011;45749;51.140;17.184;2023-01-06T11:21:43;11.68;;;6.62;;
59876;SDS011;45749;51.140;17.184;2023-01-06T11:26:58;23.38;;;12.23;;
59876;SDS011;45749;51.140;17.184;2023-01-06T11:29:40;19.80;;;11.95;;
59876;SDS011;45749;51.140;17.184;2023-01-06T11:32:13;36.15;;;16.90;;
59876;SDS011;45749;51.140;17.184;2023-01-06T11:37:35;47.30;;;19.00;;
59876;SDS011;45749;51.140;17.184;2023-01-06T11:40:02;29.32;;;14.98;;
59876;SDS011;45749;51.140;17.184;2023-01-06T11:42:53;42.03;;;16.75;;
59876;SDS011;45749;51.140;17.184;2023-01-06T11:45:30;60.48;;;23.07;;
59876;SDS011;45749;51.140;17.184;2023-01-06T11:53:26;17.25;;;10.75;;
59876;SDS011;45749;51.140;17.184;2023-01-06T11:56:01;21.35;;;11.10;;
59876;SDS011;45749;51.140;17.184;2023-01-06T12:01:41;28.75;;;18.60;;
59876;SDS011;45749;51.140;17.184;2023-01-06T12:04:23;27.87;;;13.18;;
59876;SDS011;45749;51.140;17.184;2023-01-06T12:09:50;21.37;;;11.12;;
59876;SDS011;45749;51.140;17.184;2023-01-06T12:12:19;22.73;;;10.48;;
59876;SDS011;45749;51.140;17.184;2023-01-06T12:14:51;22.37;;;13.03;;
59876;SDS011;45749;51.140;17.184;2023-01-06T12:20:15;20.90;;;11.73;;
59876;SDS011;45749;51.140;17.184;2023-01-06T12:23:04;21.37;;;11.93;;
59876;SDS011;45749;51.140;17.184;2023-01-06T12:25:46;17.45;;;9.95;;
59876;SDS011;45749;51.140;17.184;2023-01-06T12:28:15;17.87;;;9.45;;
59876;SDS011;45749;51.140;17.184;2023-01-06T12:34:11;17.62;;;7.83;;
59876;SDS011;45749;51.140;17.184;2023-01-06T12:36:45;14.70;;;8.98;;
59876;SDS011;45749;51.140;17.184;2023-01-06T12:39:26;13.08;;;8.68;;
59876;SDS011;45749;51.140;17.184;2023-01-06T12:45:00;17.60;;;10.70;;
59876;SDS011;45749;51.140;17.184;2023-01-06T12:47:49;13.90;;;8.80;;
59876;SDS011;45749;51.140;17.184;2023-01-06T12:53:24;16.32;;;9.15;;
59876;SDS011;45749;51.140;17.184;2023-01-06T13:01:41;11.70;;;7.50;;
59876;SDS011;45749;51.140;17.184;2023-01-06T13:10:29;18.55;;;10.10;;
59876;SDS011;45749;51.140;17.184;2023-01-06T13:15:52;21.33;;;12.25;;
59876;SDS011;45749;51.140;17.184;2023-01-06T13:21:17;60.58;;;29.50;;
59876;SDS011;45749;51.140;17.184;2023-01-06T13:38:57;37.75;;;25.32;;
59876;SDS011;45749;51.140;17.184;2023-01-06T13:41:36;48.10;;;28.27;;
59876;SDS011;45749;51.140;17.184;2023-01-06T13:44:02;23.20;;;13.10;;
59876;SDS011;45749;51.140;17.184;2023-01-06T13:46:33;43.02;;;29.10;;
59876;SDS011;45749;51.140;17.184;2023-01-06T13:49:00;53.13;;;35.40;;
59876;SDS011;45749;51.140;17.184;2023-01-06T13:51:33;50.20;;;31.37;;
59876;SDS011;45749;51.140;17.184;2023-01-06T13:54:03;39.42;;;26.42;;
59876;SDS011;45749;51.140;17.184;2023-01-06T13:56:33;29.05;;;16.87;;
59876;SDS011;45749;51.140;17.184;2023-01-06T13:59:23;25.08;;;14.40;;
59876;SDS011;45749;51.140;17.184;2023-01-06T14:01:48;29.10;;;16.40;;
59876;SDS011;45749;51.140;17.184;2023-01-06T14:07:07;26.70;;;16.02;;
59876;SDS011;45749;51.140;17.184;2023-01-06T14:09:35;24.52;;;14.55;;
59876;SDS011;45749;51.140;17.184;2023-01-06T14:12:14;26.87;;;16.15;;
59876;SDS011;45749;51.140;17.184;2023-01-06T14:14:42;27.48;;;15.43;;
59876;SDS011;45749;51.140;17.184;2023-01-06T14:17:25;24.27;;;12.90;;
59876;SDS011;45749;51.140;17.184;2023-01-06T14:20:03;21.82;;;12.70;;
59876;SDS011;45749;51.140;17.184;2023-01-06T14:22:31;26.48;;;14.25;;
59876;SDS011;45749;51.140;17.184;2023-01-06T14:24:59;22.80;;;13.60;;
59876;SDS011;45749;51.140;17.184;2023-01-06T14:35:32;34.23;;;18.52;;
59876;SDS011;45749;51.140;17.184;2023-01-06T14:38:02;35.10;;;20.68;;
59876;SDS011;45749;51.140;17.184;2023-01-06T14:40:37;27.52;;;14.90;;
59876;SDS011;45749;51.140;17.184;2023-01-06T14:46:14;24.75;;;13.18;;
59876;SDS011;45749;51.140;17.184;2023-01-06T14:49:02;29.67;;;17.10;;
59876;SDS011;45749;51.140;17.184;2023-01-06T14:51:31;19.77;;;13.08;;
59876;SDS011;45749;51.140;17.184;2023-01-06T14:54:02;18.70;;;11.60;;
59876;SDS011;45749;51.140;17.184;2023-01-06T14:59:11;17.50;;;10.80;;
59876;SDS011;45749;51.140;17.184;2023-01-06T15:01:40;21.55;;;11.73;;
59876;SDS011;45749;51.140;17.184;2023-01-06T15:04:18;24.35;;;13.20;;
59876;SDS011;45749;51.140;17.184;2023-01-06T15:07:03;22.62;;;13.93;;
59876;SDS011;45749;51.140;17.184;2023-01-06T15:09:48;22.27;;;13.38;;
59876;SDS011;45749;51.140;17.184;2023-01-06T15:12:23;17.77;;;11.30;;
59876;SDS011;45749;51.140;17.184;2023-01-06T15:14:55;22.02;;;12.15;;
59876;SDS011;45749;51.140;17.184;2023-01-06T15:17:22;18.27;;;11.22;;
59876;SDS011;45749;51.140;17.184;2023-01-06T15:19:54;22.75;;;13.60;;
59876;SDS011;45749;51.140;17.184;2023-01-06T15:22:22;23.25;;;12.78;;
59876;SDS011;45749;51.140;17.184;2023-01-06T15:24:49;22.60;;;13.00;;
59876;SDS011;45749;51.140;17.184;2023-01-06T15:27:16;26.37;;;17.07;;
59876;SDS011;45749;51.140;17.184;2023-01-06T15:29:53;31.77;;;18.67;;
59876;SDS011;45749;51.140;17.184;2023-01-06T15:32:22;35.10;;;23.42;;
59876;SDS011;45749;51.140;17.184;2023-01-06T15:34:54;37.45;;;24.70;;
59876;SDS011;45749;51.140;17.184;2023-01-06T15:37:27;38.25;;;25.17;;
59876;SDS011;45749;51.140;17.184;2023-01-06T15:39:57;38.60;;;27.13;;
59876;SDS011;45749;51.140;17.184;2023-01-06T15:42:23;38.20;;;23.80;;
59876;SDS011;45749;51.140;17.184;2023-01-06T15:44:54;44.60;;;27.50;;
59876;SDS011;45749;51.140;17.184;2023-01-06T15:47:30;34.43;;;21.48;;
59876;SDS011;45749;51.140;17.184;2023-01-06T15:50:03;25.77;;;16.17;;
59876;SDS011;45749;51.140;17.184;2023-01-06T15:52:42;38.92;;;21.52;;
59876;SDS011;45749;51.140;17.184;2023-01-06T15:58:13;35.38;;;21.90;;
59876;SDS011;45749;51.140;17.184;2023-01-06T16:00:51;40.23;;;24.35;;
59876;SDS011;45749;51.140;17.184;2023-01-06T16:03:17;33.13;;;21.35;;
59876;SDS011;45749;51.140;17.184;2023-01-06T16:05:49;27.45;;;15.90;;
59876;SDS011;45749;51.140;17.184;2023-01-06T16:08:38;29.35;;;19.00;;
59876;SDS011;45749;51.140;17.184;2023-01-06T16:13:35;29.02;;;19.17;;
59876;SDS011;45749;51.140;17.184;2023-01-06T16:16:05;27.85;;;18.48;;
59876;SDS011;45749;51.140;17.184;2023-01-06T16:18:38;25.23;;;14.33;;
59876;SDS011;45749;51.140;17.184;2023-01-06T16:21:19;24.67;;;15.85;;
59876;SDS011;45749;51.140;17.184;2023-01-06T16:24:02;25.92;;;17.67;;
59876;SDS011;45749;51.140;17.184;2023-01-06T16:26:31;25.20;;;17.40;;
59876;SDS011;45749;51.140;17.184;2023-01-06T16:29:21;23.50;;;15.70;;
59876;SDS011;45749;51.140;17.184;2023-01-06T16:31:53;25.60;;;16.40;;
59876;SDS011;45749;51.140;17.184;2023-01-06T16:36:53;32.90;;;19.90;;
59876;SDS011;45749;51.140;17.184;2023-01-06T16:39:21;30.68;;;20.92;;
59876;SDS011;45749;51.140;17.184;2023-01-06T16:44:33;31.77;;;23.22;;
59876;SDS011;45749;51.140;17.184;2023-01-06T16:47:00;39.33;;;24.25;;
59876;SDS011;45749;51.140;17.184;2023-01-06T16:49:29;37.98;;;24.77;;
59876;SDS011;45749;51.140;17.184;2023-01-06T16:51:55;27.35;;;20.02;;
59876;SDS011;45749;51.140;17.184;2023-01-06T16:54:22;28.00;;;18.92;;
59876;SDS011;45749;51.140;17.184;2023-01-06T16:56:48;32.67;;;22.90;;
59876;SDS011;45749;51.140;17.184;2023-01-06T16:59:16;42.38;;;28.73;;
59876;SDS011;45749;51.140;17.184;2023-01-06T17:01:44;53.33;;;35.50;;
59876;SDS011;45749;51.140;17.184;2023-01-06T17:04:12;64.30;;;38.60;;
59876;SDS011;45749;51.140;17.184;2023-01-06T17:06:40;56.70;;;36.75;;
59876;SDS011;45749;51.140;17.184;2023-01-06T17:09:21;47.70;;;31.52;;
59876;SDS011;45749;51.140;17.184;2023-01-06T17:11:48;41.42;;;26.65;;
59876;SDS011;45749;51.140;17.184;2023-01-06T17:14:16;33.15;;;22.13;;